Time;durP1;ratioP1;P1;durP2;ratioP2;P2;SDS_P1;SDS_P2;PMS_P1;PMS_P2;Temp;Humidity;BMP_temperature;BMP_pressure;BME280_temperature;BME280_humidity;BME280_pressure;Samples;Min_cycle;Max_cycle;Signal;HPM_P1;HPM_P2
2022/09/16 00:01:41;;;;;;;1.98;1.30;;;20.70;67.40;;;;;;5100550;28;20054;-46
2022/09/16 00:04:07;;;;;;;1.40;1.30;;;20.70;67.30;;;;;;5098387;28;20038;-47
2022/09/16 00:06:33;;;;;;;1.27;1.17;;;20.70;67.10;;;;;;5095970;28;20066;-54
2022/09/16 00:09:00;;;;;;;1.52;1.30;;;20.70;66.90;;;;;;5103062;28;20063;-50
2022/09/16 00:11:26;;;;;;;3.75;1.50;;;20.80;66.80;;;;;;5107411;28;20060;-51
2022/09/16 00:13:52;;;;;;;1.50;1.40;;;20.80;66.70;;;;;;5097017;28;20711;-48
2022/09/16 00:16:23;;;;;;;2.13;1.30;;;20.80;66.60;;;;;;5101790;28;20033;-50
2022/09/16 00:18:56;;;;;;;3.17;1.50;;;20.80;66.50;;;;;;5089198;28;20429;-46
2022/09/16 00:21:23;;;;;;;1.58;1.25;;;20.90;66.50;;;;;;5083443;28;20051;-49
2022/09/16 00:23:49;;;;;;;1.65;1.40;;;20.90;66.40;;;;;;5103209;28;20031;-47
2022/09/16 00:26:16;;;;;;;2.28;1.30;;;20.90;66.20;;;;;;5077888;28;20036;-50
2022/09/16 00:28:42;;;;;;;4.10;1.35;;;20.90;66.30;;;;;;5097328;28;20084;-55
2022/09/16 00:31:08;;;;;;;1.40;1.30;;;20.90;66.20;;;;;;5098759;28;20044;-53
2022/09/16 00:33:34;;;;;;;2.45;1.48;;;20.90;66.10;;;;;;5096266;28;20095;-50
2022/09/16 00:36:14;;;;;;;1.30;1.20;;;20.90;66.20;;;;;;5078217;28;20040;-54
2022/09/16 00:38:40;;;;;;;3.65;1.40;;;20.90;66.20;;;;;;5105561;28;20028;-55
2022/09/16 00:41:07;;;;;;;1.47;1.33;;;21.00;66.10;;;;;;5105254;28;20058;-55
2022/09/16 00:43:55;;;;;;;1.45;1.30;;;21.00;66.80;;;;;;5092943;28;20052;-50
2022/09/16 00:46:42;;;;;;;1.52;1.20;;;21.00;66.20;;;;;;5106046;28;20032;-54
2022/09/16 00:49:29;;;;;;;1.50;1.40;;;21.00;66.20;;;;;;5083885;28;20063;-53
2022/09/16 00:52:00;;;;;;;1.42;1.17;;;21.00;66.30;;;;;;5082021;28;20043;-53
2022/09/16 00:54:27;;;;;;;1.33;1.23;;;21.00;66.20;;;;;;5103017;28;20088;-50
2022/09/16 00:56:54;;;;;;;1.57;1.47;;;21.10;66.20;;;;;;5099161;28;20048;-49
2022/09/16 00:59:31;;;;;;;1.45;1.35;;;21.10;66.20;;;;;;5082750;28;20024;-46
2022/09/16 01:01:58;;;;;;;2.45;1.52;;;21.10;66.20;;;;;;5086576;28;20032;-45
2022/09/16 01:04:28;;;;;;;1.63;1.40;;;21.10;66.10;;;;;;5086674;28;20028;-48
2022/09/16 01:06:54;;;;;;;1.20;1.10;;;21.20;66.10;;;;;;5082225;28;20595;-49
2022/09/16 01:09:21;;;;;;;1.50;1.40;;;21.20;66.10;;;;;;5103702;28;20043;-51
2022/09/16 01:11:47;;;;;;;;;;;21.20;66.10;;;;;;5083291;28;20062;-52
2022/09/16 01:17:27;;;;;;;1.77;1.30;;;21.20;66.00;;;;;;5081238;28;20092;-47
2022/09/16 01:20:15;;;;;;;2.33;1.50;;;21.20;66.00;;;;;;5107374;28;20020;-45
2022/09/16 01:23:10;;;;;;;1.38;1.20;;;21.20;66.00;;;;;;5080248;28;20075;-49
2022/09/16 01:25:49;;;;;;;1.52;1.42;;;21.30;66.00;;;;;;5096545;28;20024;-46
2022/09/16 01:28:44;;;;;;;1.42;1.20;;;21.30;66.00;;;;;;5097843;28;20028;-48
2022/09/16 01:31:34;;;;;;;1.52;1.40;;;21.30;66.00;;;;;;5029123;28;20038;-52
2022/09/16 01:34:09;;;;;;;1.30;1.20;;;21.30;65.90;;;;;;5018608;28;20034;-48
2022/09/16 01:36:48;;;;;;;1.98;1.30;;;21.30;65.90;;;;;;5017889;28;20046;-51
2022/09/16 01:39:21;;;;;;;1.58;1.48;;;21.30;65.80;;;;;;5004530;28;20029;-53
2022/09/16 01:42:02;;;;;;;1.50;1.40;;;21.40;66.20;;;;;;5019909;28;20042;-52
2022/09/16 01:44:39;;;;;;;1.55;1.30;;;21.40;66.30;;;;;;4994661;28;20052;-51
2022/09/16 01:47:21;;;;;;;1.40;1.30;;;21.40;66.40;;;;;;5000183;28;20048;-53
2022/09/16 01:49:57;;;;;;;2.13;1.60;;;21.40;66.40;;;;;;5013814;28;20045;-51
2022/09/16 01:52:33;;;;;;;1.95;1.48;;;21.40;66.40;;;;;;5011089;28;20031;-50
2022/09/16 01:55:00;;;;;;;1.40;1.30;;;21.50;66.50;;;;;;5008229;28;20346;-48
2022/09/16 01:57:52;;;;;;;3.35;1.95;;;21.50;66.50;;;;;;5012952;28;20038;-52
2022/09/16 02:00:18;;;;;;;2.78;1.52;;;21.50;66.50;;;;;;5011214;28;20529;-48
2022/09/16 02:02:53;;;;;;;1.83;1.33;;;21.50;66.40;;;;;;5004833;28;20097;-47
2022/09/16 02:05:27;;;;;;;1.80;1.30;;;21.50;66.40;;;;;;5014728;28;20022;-48
2022/09/16 02:08:01;;;;;;;3.00;1.40;;;21.50;66.30;;;;;;5038619;28;20037;-47
2022/09/16 02:10:30;;;;;;;3.05;1.40;;;21.50;66.30;;;;;;5071859;28;20021;-47
2022/09/16 02:13:05;;;;;;;1.70;1.48;;;21.50;66.20;;;;;;5062597;28;20025;-47
2022/09/16 02:15:32;;;;;;;2.03;1.60;;;21.50;66.20;;;;;;5071976;28;20049;-54
2022/09/16 02:18:09;;;;;;;1.70;1.60;;;21.50;66.20;;;;;;5061911;28;20020;-49
2022/09/16 02:20:37;;;;;;;1.50;1.40;;;21.50;66.10;;;;;;5071259;28;20043;-53
2022/09/16 02:23:33;;;;;;;2.28;1.55;;;21.60;66.90;;;;;;5075928;28;20136;-51
2022/09/16 02:26:00;;;;;;;1.60;1.25;;;21.60;66.10;;;;;;5052253;28;20055;-49
2022/09/16 02:28:29;;;;;;;2.33;1.53;;;21.60;66.00;;;;;;5079200;28;20086;-48
2022/09/16 02:30:57;;;;;;;2.33;1.50;;;21.60;66.10;;;;;;5040209;28;20040;-53
2022/09/16 02:33:24;;;;;;;1.50;1.40;;;21.60;66.10;;;;;;5091172;28;20055;-50
2022/09/16 02:35:51;;;;;;;1.35;1.25;;;21.60;66.00;;;;;;5071469;28;20055;-48
2022/09/16 02:38:21;;;;;;;2.83;1.42;;;21.60;66.00;;;;;;5079392;28;20028;-47
2022/09/16 02:40:53;;;;;;;1.80;1.55;;;21.60;66.10;;;;;;5114511;28;20028;-47
2022/09/16 02:43:19;;;;;;;1.50;1.40;;;21.60;66.10;;;;;;5098853;28;20043;-49
2022/09/16 02:45:58;;;;;;;1.58;1.30;;;21.60;66.10;;;;;;5100030;28;20028;-49
2022/09/16 02:48:52;;;;;;;2.22;1.50;;;21.60;66.20;;;;;;5099476;28;20035;-58
2022/09/16 02:51:44;;;;;;;1.48;1.38;;;21.60;66.10;;;;;;5099812;28;20086;-58
2022/09/16 02:54:37;;;;;;;1.65;1.40;;;21.60;66.10;;;;;;5099546;28;20077;-53
2022/09/16 02:57:03;;;;;;;1.52;1.42;;;21.60;66.20;;;;;;5103214;28;20044;-44
2022/09/16 02:59:30;;;;;;;1.67;1.50;;;21.70;66.20;;;;;;5094368;28;20524;-42
2022/09/16 03:01:57;;;;;;;1.75;1.48;;;21.70;66.30;;;;;;5108637;28;20078;-43
2022/09/16 03:04:23;;;;;;;1.60;1.50;;;21.70;66.30;;;;;;5120631;28;20031;-42
2022/09/16 03:06:49;;;;;;;1.60;1.50;;;21.70;67.10;;;;;;5107697;28;20058;-40
2022/09/16 03:09:17;;;;;;;1.55;1.45;;;21.70;66.40;;;;;;5126935;28;20031;-44
2022/09/16 03:12:04;;;;;;;2.20;1.60;;;21.70;66.40;;;;;;5096725;28;20040;-41
2022/09/16 03:15:06;;;;;;;1.92;1.40;;;21.70;66.40;;;;;;5100493;28;20040;-41
2022/09/16 03:17:41;;;;;;;4.38;1.70;;;21.70;66.50;;;;;;5054225;28;20097;-40
2022/09/16 03:20:20;;;;;;;1.95;1.80;;;21.70;66.50;;;;;;5065996;28;20021;-43
2022/09/16 03:22:53;;;;;;;2.00;1.52;;;21.70;66.70;;;;;;5072680;28;20044;-46
2022/09/16 03:25:51;;;;;;;1.55;1.40;;;21.70;66.70;;;;;;5050035;28;20059;-48
2022/09/16 03:28:53;;;;;;;1.67;1.55;;;21.70;66.70;;;;;;5043691;28;20079;-60
2022/09/16 03:31:28;;;;;;;1.65;1.50;;;21.70;66.70;;;;;;5043179;28;20072;-52
2022/09/16 03:34:09;;;;;;;1.95;1.77;;;21.70;66.70;;;;;;5055000;28;20418;-44
2022/09/16 03:36:44;;;;;;;1.80;1.70;;;21.70;66.70;;;;;;5058690;28;20229;-44
2022/09/16 03:39:10;;;;;;;1.73;1.63;;;21.70;66.70;;;;;;5041624;28;20060;-43
2022/09/16 03:41:36;;;;;;;1.63;1.50;;;21.70;66.80;;;;;;5045749;28;20032;-43
2022/09/16 03:44:02;;;;;;;2.10;1.88;;;21.70;66.80;;;;;;5056406;28;20035;-44
2022/09/16 03:46:28;;;;;;;1.83;1.73;;;21.70;66.90;;;;;;5056288;28;20044;-43
2022/09/16 03:48:55;;;;;;;2.22;1.92;;;21.70;67.00;;;;;;5057975;28;20024;-45
2022/09/16 03:51:22;;;;;;;1.92;1.80;;;21.70;67.20;;;;;;5051930;28;20055;-44
2022/09/16 03:53:49;;;;;;;;;;;21.70;67.10;;;;;;5076706;28;20044;-45
2022/09/16 03:56:15;;;;;;;2.15;1.92;;;21.70;67.30;;;;;;5095788;28;19924;-47
2022/09/16 03:58:41;;;;;;;1.80;1.70;;;21.70;67.40;;;;;;5098215;28;20025;-43
2022/09/16 04:01:08;;;;;;;1.88;1.70;;;21.70;68.20;;;;;;5093848;28;20056;-48
2022/09/16 04:03:36;;;;;;;2.13;1.88;;;21.70;67.50;;;;;;5094831;28;20086;-45
2022/09/16 04:06:02;;;;;;;1.80;1.70;;;21.70;67.60;;;;;;5090880;28;20035;-56
2022/09/16 04:08:28;;;;;;;2.23;1.90;;;21.70;67.60;;;;;;5104984;28;20034;-56
2022/09/16 04:10:56;;;;;;;1.90;1.40;;;21.70;67.60;;;;;;5105368;28;20036;-53
2022/09/16 04:13:23;;;;;;;1.73;1.63;;;21.70;67.60;;;;;;5102163;28;20032;-51
2022/09/16 04:15:49;;;;;;;2.10;1.90;;;21.70;67.60;;;;;;5094536;28;20040;-51
2022/09/16 04:18:16;;;;;;;2.13;1.92;;;21.70;67.50;;;;;;5125039;28;20057;-49
2022/09/16 04:20:42;;;;;;;2.55;2.03;;;21.70;67.60;;;;;;5118267;28;20040;-55
2022/09/16 04:23:08;;;;;;;1.70;1.60;;;21.70;67.50;;;;;;5103737;28;20032;-51
2022/09/16 04:25:34;;;;;;;2.70;1.77;;;21.80;67.40;;;;;;5092345;28;20062;-51
2022/09/16 04:28:00;;;;;;;1.92;1.73;;;21.80;67.40;;;;;;5093497;28;20038;-51
2022/09/16 04:30:27;;;;;;;2.23;2.00;;;21.80;67.50;;;;;;5089563;28;20117;-48
2022/09/16 04:32:53;;;;;;;1.93;1.83;;;21.80;68.20;;;;;;5088235;28;20052;-51
2022/09/16 04:35:20;;;;;;;2.03;1.83;;;21.80;67.30;;;;;;5091304;28;20058;-50
2022/09/16 04:37:46;;;;;;;1.70;1.60;;;21.80;67.30;;;;;;5091858;28;20032;-49
2022/09/16 04:40:12;;;;;;;2.92;1.90;;;21.80;67.30;;;;;;5084726;28;20037;-53
2022/09/16 04:42:38;;;;;;;2.03;1.80;;;21.80;67.30;;;;;;5099859;28;20039;-50
2022/09/16 04:45:05;;;;;;;2.15;1.60;;;21.80;67.30;;;;;;5084164;28;20028;-51
2022/09/16 04:47:31;;;;;;;1.90;1.70;;;21.80;67.30;;;;;;5084212;28;20032;-53
2022/09/16 04:49:57;;;;;;;3.10;1.90;;;21.80;67.40;;;;;;5087892;28;20035;-54
2022/09/16 04:52:23;;;;;;;2.08;1.83;;;21.80;67.40;;;;;;5085894;28;20133;-53
2022/09/16 04:54:49;;;;;;;2.88;1.70;;;21.80;67.40;;;;;;5087802;28;20042;-54
2022/09/16 04:57:15;;;;;;;2.90;1.90;;;21.80;67.20;;;;;;5092535;28;20039;-53
2022/09/16 04:59:42;;;;;;;2.03;1.83;;;21.80;67.30;;;;;;5109563;28;20484;-52
2022/09/16 05:02:08;;;;;;;1.88;1.77;;;21.80;67.30;;;;;;5092129;28;20039;-50
2022/09/16 05:04:34;;;;;;;2.15;1.92;;;21.80;66.90;;;;;;5094969;28;20039;-35
2022/09/16 05:07:00;;;;;;;2.30;1.67;;;21.80;67.00;;;;;;5095295;28;20032;-35
2022/09/16 05:09:26;;;;;;;2.55;1.75;;;21.80;67.00;;;;;;5089932;28;20036;-35
2022/09/16 05:11:52;;;;;;;1.60;1.50;;;21.80;66.90;;;;;;5090983;28;20112;-35
2022/09/16 05:14:19;;;;;;;2.10;1.90;;;21.80;66.90;;;;;;5090660;28;20032;-34
2022/09/16 05:16:45;;;;;;;1.95;1.77;;;21.80;67.10;;;;;;5093201;28;20044;-34
2022/09/16 05:19:12;;;;;;;1.75;1.60;;;21.80;67.00;;;;;;5095131;28;20028;-34
2022/09/16 05:21:38;;;;;;;1.65;1.55;;;21.80;67.00;;;;;;5089948;28;20040;-35
2022/09/16 05:24:09;;;;;;;1.73;1.63;;;21.80;66.90;;;;;;5101237;28;20085;-35
2022/09/16 05:26:37;;;;;;;1.50;1.40;;;21.80;67.00;;;;;;5091134;28;20028;-35
2022/09/16 05:29:05;;;;;;;1.88;1.77;;;21.80;66.80;;;;;;5091101;28;20053;-34
2022/09/16 05:31:36;;;;;;;1.60;1.48;;;21.80;66.90;;;;;;5092652;28;20050;-34
2022/09/16 05:34:04;;;;;;;1.88;1.55;;;21.80;67.50;;;;;;5103718;28;20054;-34
2022/09/16 05:36:32;;;;;;;2.10;1.80;;;21.80;66.70;;;;;;5095520;28;20035;-34
2022/09/16 05:38:59;;;;;;;2.10;1.90;;;21.80;66.60;;;;;;5095365;28;20059;-34
2022/09/16 05:41:25;;;;;;;3.03;1.73;;;21.80;66.80;;;;;;5097353;28;20704;-34
2022/09/16 05:43:51;;;;;;;1.87;1.60;;;21.80;67.40;;;;;;5093163;28;20039;-34
2022/09/16 05:46:19;;;;;;;2.17;1.63;;;21.70;66.70;;;;;;5090557;28;20032;-34
2022/09/16 05:48:46;;;;;;;2.33;1.85;;;21.80;66.70;;;;;;5091200;28;20028;-34
2022/09/16 05:51:17;;;;;;;1.80;1.60;;;21.80;66.60;;;;;;5090975;28;20570;-39
2022/09/16 05:53:43;;;;;;;3.05;1.98;;;21.70;66.50;;;;;;5089789;28;20035;-36
2022/09/16 05:56:12;;;;;;;1.90;1.70;;;21.80;66.60;;;;;;5095518;28;20048;-36
2022/09/16 05:58:38;;;;;;;2.00;1.70;;;21.70;66.50;;;;;;5085875;28;20035;-34
2022/09/16 06:01:06;;;;;;;2.00;1.80;;;21.70;66.40;;;;;;5086292;28;20024;-34
2022/09/16 06:03:51;;;;;;;1.88;1.77;;;21.70;66.40;;;;;;5091553;28;20031;-34
2022/09/16 06:06:31;;;;;;;1.90;1.75;;;21.70;66.40;;;;;;5089831;28;20165;-34
2022/09/16 06:09:06;;;;;;;1.80;1.70;;;21.70;66.30;;;;;;5090548;28;20031;-35
2022/09/16 06:11:34;;;;;;;2.25;1.98;;;21.70;66.30;;;;;;5109977;28;20031;-35
2022/09/16 06:14:00;;;;;;;1.63;1.52;;;21.70;66.30;;;;;;5077963;28;20056;-35
2022/09/16 06:16:27;;;;;;;1.67;1.58;;;21.70;66.30;;;;;;5091114;28;20040;-35
2022/09/16 06:18:54;;;;;;;1.90;1.70;;;21.70;66.30;;;;;;5087014;28;20059;-35
2022/09/16 06:21:20;;;;;;;1.70;1.55;;;21.70;66.30;;;;;;5094723;28;20036;-35
2022/09/16 06:23:46;;;;;;;2.50;1.80;;;21.70;66.20;;;;;;5095244;28;20055;-35
2022/09/16 06:26:14;;;;;;;1.80;1.70;;;21.70;66.10;;;;;;5092260;28;20028;-35
2022/09/16 06:28:40;;;;;;;1.85;1.75;;;21.70;66.30;;;;;;5093581;28;20158;-36
2022/09/16 06:31:10;;;;;;;2.08;1.88;;;21.70;66.10;;;;;;5097195;28;20131;-35
2022/09/16 06:33:36;;;;;;;2.15;1.95;;;21.70;66.20;;;;;;5089971;28;20062;-35
2022/09/16 06:36:14;;;;;;;1.70;1.60;;;21.70;66.20;;;;;;5092022;28;20113;-35
2022/09/16 06:38:40;;;;;;;4.28;1.98;;;21.60;66.20;;;;;;5090073;28;20040;-35
2022/09/16 06:41:08;;;;;;;2.88;1.92;;;21.70;66.20;;;;;;5065696;28;20028;-35
2022/09/16 06:43:34;;;;;;;1.95;1.80;;;21.60;66.20;;;;;;5086872;28;20040;-35
2022/09/16 06:46:02;;;;;;;2.08;1.88;;;21.60;66.20;;;;;;5086712;28;20112;-34
2022/09/16 06:48:28;;;;;;;1.95;1.77;;;21.60;66.20;;;;;;5089767;28;20073;-35
2022/09/16 06:51:03;;;;;;;1.73;1.63;;;21.70;66.20;;;;;;5094482;28;20174;-35
2022/09/16 06:53:29;;;;;;;3.08;1.83;;;21.70;66.20;;;;;;5088220;28;20039;-35
2022/09/16 06:55:58;;;;;;;2.50;1.90;;;21.60;66.20;;;;;;5091396;28;20035;-35
2022/09/16 06:58:25;;;;;;;2.15;1.83;;;21.60;66.20;;;;;;5099281;28;20036;-35
2022/09/16 07:00:51;;;;;;;2.58;1.95;;;21.60;66.20;;;;;;5089664;28;20043;-37
2022/09/16 07:03:17;;;;;;;2.33;1.80;;;21.60;66.20;;;;;;5091974;28;20021;-38
2022/09/16 07:05:43;;;;;;;1.95;1.83;;;21.60;66.20;;;;;;5092512;28;20025;-35
2022/09/16 07:08:09;;;;;;;2.08;1.88;;;21.60;66.30;;;;;;5083827;28;20035;-34
2022/09/16 07:10:35;;;;;;;2.35;1.88;;;21.60;66.30;;;;;;5077590;28;20504;-35
2022/09/16 07:13:02;;;;;;;1.95;1.80;;;21.60;66.30;;;;;;5092149;28;20111;-35
2022/09/16 07:15:28;;;;;;;2.72;1.92;;;21.60;66.40;;;;;;5091019;28;20059;-34
2022/09/16 07:17:55;;;;;;;2.40;1.83;;;21.60;66.30;;;;;;5112579;28;20042;-34
2022/09/16 07:20:21;;;;;;;1.90;1.80;;;21.60;66.20;;;;;;5109814;28;20051;-34
2022/09/16 07:22:49;;;;;;;1.83;1.70;;;21.60;66.30;;;;;;5091792;28;20032;-34
2022/09/16 07:25:16;;;;;;;1.85;1.75;;;21.60;66.20;;;;;;5096486;28;20028;-35
2022/09/16 07:27:42;;;;;;;2.30;2.10;;;21.60;66.30;;;;;;5095139;28;20043;-34
2022/09/16 07:30:08;;;;;;;2.42;2.03;;;21.60;66.30;;;;;;5095516;28;20044;-34
2022/09/16 07:32:34;;;;;;;2.20;2.00;;;21.60;66.30;;;;;;5079015;28;20048;-38
2022/09/16 07:35:02;;;;;;;3.00;1.80;;;21.60;66.20;;;;;;5071553;28;20036;-34
2022/09/16 07:37:28;;;;;;;2.17;1.65;;;21.50;66.20;;;;;;5066062;28;20032;-34
2022/09/16 07:39:54;;;;;;;3.17;1.95;;;21.50;66.10;;;;;;5065006;28;20029;-35
2022/09/16 07:42:21;;;;;;;2.58;1.85;;;21.50;66.20;;;;;;5070884;28;20439;-35
2022/09/16 07:44:47;;;;;;;2.75;1.80;;;21.60;66.30;;;;;;5074270;28;20082;-35
2022/09/16 07:47:13;;;;;;;2.17;1.98;;;21.50;66.40;;;;;;5075632;28;20047;-34
2022/09/16 07:49:39;;;;;;;2.08;1.88;;;21.50;66.20;;;;;;5073614;28;20028;-34
2022/09/16 07:52:05;;;;;;;2.22;2.03;;;21.50;66.20;;;;;;5068148;28;20028;-36
2022/09/16 07:54:32;;;;;;;2.08;1.88;;;21.60;66.40;;;;;;5072785;28;20017;-34
2022/09/16 07:56:58;;;;;;;2.50;2.28;;;21.50;66.20;;;;;;5075384;28;20037;-34
2022/09/16 07:59:24;;;;;;;1.90;1.80;;;21.50;66.50;;;;;;5079913;28;20021;-34
2022/09/16 08:01:50;;;;;;;2.20;2.00;;;21.50;66.50;;;;;;5070439;28;20044;-35
2022/09/16 08:04:17;;;;;;;2.50;2.30;;;21.50;66.50;;;;;;5072773;28;20592;-34
2022/09/16 08:06:43;;;;;;;3.00;1.98;;;21.50;66.60;;;;;;5074022;28;20027;-35
2022/09/16 08:09:09;;;;;;;5.03;2.30;;;21.50;67.00;;;;;;5072394;28;20035;-36
2022/09/16 08:11:35;;;;;;;6.03;2.40;;;21.50;67.10;;;;;;5074429;28;20090;-35
2022/09/16 08:14:01;;;;;;;5.07;2.08;;;21.50;67.20;;;;;;5073816;28;20077;-35
2022/09/16 08:16:27;;;;;;;6.28;2.50;;;21.50;67.30;;;;;;5075061;28;20096;-34
2022/09/16 08:18:55;;;;;;;7.78;2.63;;;21.50;67.50;;;;;;5080894;28;20071;-34
2022/09/16 08:21:22;;;;;;;;;;;21.50;67.60;;;;;;5074022;28;20031;-35
2022/09/16 08:23:48;;;;;;;7.72;2.67;;;21.50;67.60;;;;;;5067462;28;19909;-35
2022/09/16 08:26:14;;;;;;;7.05;2.70;;;21.50;67.80;;;;;;5083784;28;20029;-35
2022/09/16 08:28:41;;;;;;;5.25;2.67;;;21.50;68.10;;;;;;5073314;28;20034;-35
2022/09/16 08:31:07;;;;;;;6.70;2.58;;;21.50;68.00;;;;;;5082529;28;20515;-35
2022/09/16 08:33:34;;;;;;;7.07;2.97;;;21.50;67.90;;;;;;5103788;28;20068;-35
2022/09/16 08:36:16;;;;;;;3.80;2.70;;;21.50;67.90;;;;;;5099380;28;20036;-35
2022/09/16 08:38:43;;;;;;;7.38;2.60;;;21.50;67.80;;;;;;5090761;28;20016;-35
2022/09/16 08:41:15;;;;;;;6.20;2.65;;;21.50;67.70;;;;;;5096297;28;20028;-35
2022/09/16 08:43:58;;;;;;;5.65;2.75;;;21.50;67.70;;;;;;5092271;28;20028;-36
2022/09/16 08:46:51;;;;;;;3.97;2.60;;;21.50;67.60;;;;;;5075909;28;20032;-35
2022/09/16 08:49:38;;;;;;;3.63;2.60;;;21.50;67.60;;;;;;5099518;28;20104;-35
2022/09/16 08:52:14;;;;;;;5.63;2.70;;;21.50;67.50;;;;;;5098813;28;20036;-35
2022/09/16 08:54:46;;;;;;;3.33;2.30;;;21.50;67.40;;;;;;5087941;28;20681;-35
2022/09/16 08:57:19;;;;;;;4.68;2.50;;;21.50;67.40;;;;;;5092742;28;20095;-34
2022/09/16 08:59:59;;;;;;;3.80;2.70;;;21.50;67.40;;;;;;5088856;28;20111;-34
2022/09/16 09:04:51;;;;;;;2.92;2.20;;;21.50;67.30;;;;;;5097290;28;20035;-34
2022/09/16 09:07:45;;;;;;;5.93;2.50;;;21.50;67.30;;;;;;5087320;28;20031;-35
2022/09/16 09:10:24;;;;;;;3.42;2.17;;;21.50;67.30;;;;;;5090678;28;20542;-33
2022/09/16 09:13:02;;;;;;;3.28;2.40;;;21.40;67.10;;;;;;5091918;28;20128;-33
2022/09/16 09:15:41;;;;;;;3.80;2.22;;;21.40;67.10;;;;;;5093898;28;20086;-34
2022/09/16 09:18:16;;;;;;;4.28;2.25;;;21.40;67.10;;;;;;5109091;28;20095;-33
2022/09/16 09:20:54;;;;;;;4.05;2.58;;;21.40;67.80;;;;;;5088375;28;20028;-33
2022/09/16 09:23:38;;;;;;;4.00;2.55;;;21.40;67.00;;;;;;5094150;28;20036;-33
2022/09/16 09:26:28;;;;;;;3.90;2.08;;;21.40;67.00;;;;;;5101857;28;20059;-34
2022/09/16 09:29:03;;;;;;;4.05;2.53;;;21.40;67.00;;;;;;5091934;28;20056;-33
2022/09/16 09:31:49;;;;;;;3.30;2.38;;;21.40;67.00;;;;;;5109579;28;20044;-33
2022/09/16 09:34:30;;;;;;;3.15;2.25;;;21.40;67.00;;;;;;5080066;28;20039;-33
2022/09/16 09:37:03;;;;;;;2.72;2.33;;;21.30;66.90;;;;;;5094152;28;20112;-34
2022/09/16 09:39:33;;;;;;;3.65;2.22;;;21.40;67.00;;;;;;5086191;28;20056;-34
2022/09/16 09:42:05;;;;;;;2.60;2.10;;;21.30;66.90;;;;;;5100200;28;20177;-33
2022/09/16 09:44:53;;;;;;;3.63;2.28;;;21.30;66.90;;;;;;5091906;28;20036;-33
2022/09/16 09:47:42;;;;;;;3.55;2.30;;;21.30;66.90;;;;;;5095313;28;20056;-34
2022/09/16 09:50:26;;;;;;;2.83;2.00;;;21.30;67.20;;;;;;5051245;28;20080;-33
2022/09/16 09:53:11;;;;;;;2.10;1.90;;;21.30;66.90;;;;;;5035865;28;20029;-34
2022/09/16 09:55:38;;;;;;;2.38;2.17;;;21.20;66.80;;;;;;5034542;28;20050;-33
2022/09/16 09:58:16;;;;;;;3.33;2.10;;;21.30;66.90;;;;;;5029575;28;20172;-34
2022/09/16 10:00:42;;;;;;;2.67;2.25;;;21.20;66.90;;;;;;5029569;28;20509;-33
2022/09/16 10:03:13;;;;;;;2.63;2.43;;;21.30;66.90;;;;;;5029451;28;20049;-34
2022/09/16 10:05:39;;;;;;;3.80;2.45;;;21.20;66.90;;;;;;5026668;28;20033;-33
2022/09/16 10:08:19;;;;;;;3.15;2.33;;;21.20;66.90;;;;;;5033227;28;20037;-33
2022/09/16 10:10:54;;;;;;;2.75;2.25;;;21.20;66.90;;;;;;5031036;28;20104;-33
2022/09/16 10:13:22;;;;;;;2.70;2.15;;;21.20;66.80;;;;;;5016634;28;23479;-33
2022/09/16 10:15:48;;;;;;;2.17;2.03;;;21.20;66.90;;;;;;5030901;28;20114;-33
2022/09/16 10:18:24;;;;;;;2.30;1.98;;;21.20;66.90;;;;;;5047521;28;20056;-36
2022/09/16 10:21:00;;;;;;;2.67;2.28;;;21.20;66.90;;;;;;5031015;28;20041;-33
2022/09/16 10:23:26;;;;;;;3.13;2.45;;;21.20;66.90;;;;;;5015191;28;20025;-34
2022/09/16 10:26:19;;;;;;;2.73;2.03;;;21.10;66.80;;;;;;5035460;28;20034;-33
2022/09/16 10:28:58;;;;;;;4.68;2.70;;;21.10;67.10;;;;;;5091169;28;20036;-34
2022/09/16 10:31:26;;;;;;;4.88;2.22;;;21.20;67.50;;;;;;5086032;28;20480;-35
2022/09/16 10:33:52;;;;;;;6.47;2.60;;;21.20;67.70;;;;;;5092652;28;20059;-35
2022/09/16 10:36:20;;;;;;;5.20;2.50;;;21.20;68.10;;;;;;5074165;28;20064;-34
2022/09/16 10:38:56;;;;;;;7.40;2.20;;;21.20;68.20;;;;;;5080661;28;20059;-34
2022/09/16 10:41:27;;;;;;;6.60;2.45;;;21.20;68.30;;;;;;5090222;28;20024;-34
2022/09/16 10:43:54;;;;;;;14.20;3.22;;;21.20;68.40;;;;;;5093830;28;20033;-34
2022/09/16 10:46:20;;;;;;;8.35;2.55;;;21.10;68.50;;;;;;5082542;28;20035;-33
2022/09/16 10:48:47;;;;;;;8.98;2.70;;;21.20;68.70;;;;;;5103662;28;20032;-34
2022/09/16 10:51:30;;;;;;;8.32;2.65;;;21.10;68.80;;;;;;5084549;28;20628;-34
2022/09/16 10:53:58;;;;;;;5.28;2.28;;;21.20;68.90;;;;;;5089392;28;20039;-34
2022/09/16 10:56:28;;;;;;;8.00;2.97;;;21.20;68.90;;;;;;5085485;28;20036;-50
2022/09/16 10:59:20;;;;;;;8.15;2.67;;;21.20;68.90;;;;;;5112476;28;20385;-52
2022/09/16 11:02:05;;;;;;;6.20;2.70;;;21.20;68.80;;;;;;5102481;28;20040;-49
2022/09/16 11:04:36;;;;;;;8.18;2.90;;;21.20;68.90;;;;;;5127023;28;20032;-45
2022/09/16 11:07:18;;;;;;;9.18;2.70;;;21.10;69.00;;;;;;5108169;28;20095;-38
2022/09/16 11:10:19;;;;;;;6.28;2.33;;;21.20;69.20;;;;;;5126609;28;20511;-53
2022/09/16 11:13:03;;;;;;;5.72;2.42;;;21.10;69.10;;;;;;5070503;28;20036;-54
2022/09/16 11:15:36;;;;;;;2.85;2.40;;;21.10;69.10;;;;;;5074639;28;20039;-54
2022/09/16 11:18:35;;;;;;;5.88;2.72;;;21.20;69.20;;;;;;5105955;28;20038;-53
2022/09/16 11:21:20;;;;;;;4.00;2.58;;;21.20;69.10;;;;;;5067128;28;20419;-53
2022/09/16 11:23:56;;;;;;;3.88;2.30;;;21.10;69.00;;;;;;5094948;28;20106;-52
2022/09/16 11:26:58;;;;;;;8.60;2.63;;;21.20;69.00;;;;;;5098562;28;20059;-55
2022/09/16 11:30:05;;;;;;;5.95;2.53;;;21.20;69.00;;;;;;5071890;28;20056;-53
2022/09/16 11:32:34;;;;;;;3.22;2.35;;;21.10;69.00;;;;;;5070285;28;20052;-52
2022/09/16 11:35:09;;;;;;;4.55;2.70;;;21.10;68.90;;;;;;5085527;28;20025;-53
2022/09/16 11:37:43;;;;;;;2.97;2.63;;;21.10;69.00;;;;;;5084965;28;20036;-54
2022/09/16 11:40:46;;;;;;;3.40;2.45;;;21.10;68.90;;;;;;5102320;28;20029;-55
2022/09/16 11:43:36;;;;;;;3.83;2.53;;;21.10;68.90;;;;;;5103486;28;20032;-56
2022/09/16 11:46:19;;;;;;;2.72;2.42;;;21.10;68.90;;;;;;5100978;28;20050;-53
2022/09/16 11:48:48;;;;;;;5.45;2.75;;;21.10;68.80;;;;;;5100471;28;20032;-56
2022/09/16 11:51:51;;;;;;;2.97;2.58;;;21.10;68.80;;;;;;5085713;28;20025;-55
2022/09/16 11:54:33;;;;;;;3.03;2.72;;;21.10;68.80;;;;;;5098745;28;20043;-54
2022/09/16 11:57:01;;;;;;;3.45;2.72;;;21.10;68.80;;;;;;5094626;28;20456;-55
2022/09/16 11:59:54;;;;;;;3.83;2.90;;;21.10;69.50;;;;;;5084880;28;20675;-51
2022/09/16 12:02:28;;;;;;;3.00;2.65;;;21.10;68.80;;;;;;5072803;28;20028;-53
2022/09/16 12:05:13;;;;;;;3.75;2.88;;;21.10;68.70;;;;;;5094240;28;20036;-55
2022/09/16 12:07:43;;;;;;;4.60;2.85;;;21.10;68.80;;;;;;5092823;28;20024;-53
2022/09/16 12:10:20;;;;;;;4.50;2.47;;;21.10;68.70;;;;;;5061111;28;20029;-51
2022/09/16 12:12:55;;;;;;;2.90;2.60;;;21.10;68.70;;;;;;5060741;28;20044;-53
2022/09/16 12:15:33;;;;;;;3.05;2.78;;;21.10;68.70;;;;;;5068174;28;20032;-54
2022/09/16 12:18:20;;;;;;;3.10;2.60;;;21.00;68.70;;;;;;5088301;28;20032;-54
2022/09/16 12:20:56;;;;;;;2.78;2.45;;;21.00;68.60;;;;;;5085846;28;20040;-53
2022/09/16 12:23:24;;;;;;;3.55;2.72;;;21.10;68.70;;;;;;5104852;28;20036;-55
2022/09/16 12:26:04;;;;;;;4.43;2.90;;;21.00;68.70;;;;;;5086441;28;20035;-54
2022/09/16 12:28:58;;;;;;;2.50;2.30;;;21.00;68.70;;;;;;5104410;28;20028;-54
2022/09/16 12:31:37;;;;;;;2.97;2.72;;;21.00;68.70;;;;;;5098420;28;20073;-54
2022/09/16 12:34:17;;;;;;;3.30;2.60;;;21.00;68.60;;;;;;5104998;28;20032;-54
2022/09/16 12:36:46;;;;;;;2.92;2.70;;;21.00;68.60;;;;;;5104744;28;20059;-55
2022/09/16 12:39:12;;;;;;;3.05;2.70;;;21.00;68.60;;;;;;5086229;28;20035;-52
2022/09/16 12:41:50;;;;;;;5.07;2.63;;;21.00;68.60;;;;;;5104674;28;20039;-55
2022/09/16 12:44:30;;;;;;;2.63;2.42;;;21.00;68.60;;;;;;5071656;28;20036;-55
2022/09/16 12:47:08;;;;;;;2.60;2.40;;;21.00;68.60;;;;;;5084034;28;20025;-57
2022/09/16 12:49:52;;;;;;;3.03;2.72;;;21.00;68.60;;;;;;5065914;28;20052;-55
2022/09/16 12:52:56;;;;;;;3.35;2.35;;;21.00;68.60;;;;;;5102386;28;20100;-54
2022/09/16 12:55:34;;;;;;;2.83;2.63;;;21.00;68.60;;;;;;5104292;28;20032;-55
2022/09/16 12:58:15;;;;;;;3.03;2.75;;;21.00;68.50;;;;;;5085702;28;20035;-54
2022/09/16 13:01:05;;;;;;;2.72;2.50;;;21.00;69.30;;;;;;5086107;28;20021;-55
2022/09/16 13:03:31;;;;;;;3.33;2.25;;;21.00;68.60;;;;;;5085954;28;20100;-54
2022/09/16 13:05:59;;;;;;;2.53;1.92;;;20.90;68.40;;;;;;5104064;28;20028;-52
2022/09/16 13:08:27;;;;;;;2.88;2.67;;;20.90;68.40;;;;;;5083518;28;20052;-50
2022/09/16 13:11:00;;;;;;;3.03;2.65;;;21.00;68.60;;;;;;5069064;28;20107;-52
2022/09/16 13:13:39;;;;;;;2.67;2.47;;;21.00;68.60;;;;;;5084354;28;20039;-55
2022/09/16 13:16:06;;;;;;;2.70;2.50;;;20.90;68.50;;;;;;5103920;28;20087;-54
2022/09/16 13:18:43;;;;;;;2.47;2.17;;;20.90;68.50;;;;;;5085520;28;20031;-54
2022/09/16 13:21:21;;;;;;;2.83;2.30;;;20.90;68.50;;;;;;5103869;28;20028;-53
2022/09/16 13:23:50;;;;;;;2.28;2.10;;;21.00;68.60;;;;;;5102751;28;20031;-54